createdAt,value
2023-04-26T00:00:12.383Z,1.00
2023-04-26T00:01:12.407Z,0.91
2023-04-26T00:02:12.518Z,0.81
2023-04-26T00:03:13.039Z,0.92
2023-04-26T00:04:12.885Z,0.95
2023-04-26T00:05:12.739Z,1.00
2023-04-26T00:06:12.701Z,0.59
2023-04-26T00:07:12.654Z,1.07
2023-04-26T00:08:12.767Z,1.16
2023-04-26T00:09:12.846Z,0.95
2023-04-26T00:10:12.813Z,1.06
2023-04-26T00:11:12.897Z,0.91
2023-04-26T00:12:12.903Z,1.02
2023-04-26T00:13:12.969Z,0.87
2023-04-26T00:14:13.348Z,1.11
2023-04-26T00:15:13.103Z,0.79
2023-04-26T00:16:13.183Z,1.00
2023-04-26T00:17:13.145Z,1.42
2023-04-26T00:18:13.268Z,0.87
2023-04-26T00:19:13.258Z,0.65
2023-04-26T00:20:13.315Z,0.82
2023-04-26T00:21:13.367Z,1.04
2023-04-26T00:22:13.386Z,1.10
2023-04-26T00:23:13.439Z,0.86
2023-04-26T00:24:13.900Z,1.23
2023-04-26T00:25:13.545Z,1.04
2023-04-26T00:26:13.621Z,0.88
2023-04-26T00:27:13.662Z,0.93
2023-04-26T00:28:13.694Z,0.49
2023-04-26T00:29:13.740Z,0.81
2023-04-26T00:30:13.816Z,1.10
2023-04-26T00:31:13.849Z,0.98
2023-04-26T00:32:13.930Z,0.82
2023-04-26T00:33:13.974Z,1.08
2023-04-26T00:34:14.067Z,0.74
2023-04-26T00:35:14.114Z,0.90
2023-04-26T00:36:14.103Z,1.08
2023-04-26T00:37:14.146Z,0.96
2023-04-26T00:38:14.214Z,0.64
2023-04-26T00:39:14.361Z,0.91
2023-04-26T00:40:14.319Z,0.87
2023-04-26T00:41:14.363Z,0.77
2023-04-26T00:42:14.374Z,0.68
2023-04-26T00:43:14.443Z,0.99
2023-04-26T00:44:14.530Z,1.00
2023-04-26T00:45:14.570Z,0.80
2023-04-26T00:46:14.661Z,1.03
2023-04-26T00:47:14.677Z,0.99
2023-04-26T00:48:14.765Z,0.85
2023-04-26T00:49:14.808Z,0.90
2023-04-26T00:50:14.849Z,0.83
2023-04-26T00:51:14.894Z,1.15
2023-04-26T00:52:14.926Z,0.84
2023-04-26T00:53:14.995Z,0.83
2023-04-26T00:54:15.041Z,1.04
2023-04-26T00:55:15.086Z,0.84
2023-04-26T00:56:15.188Z,1.15
2023-04-26T00:57:15.188Z,1.08
2023-04-26T00:58:15.234Z,0.65
2023-04-26T00:59:15.352Z,0.83
2023-04-26T01:00:15.348Z,0.78
2023-04-26T01:01:15.465Z,0.97
2023-04-26T01:02:15.573Z,0.91
2023-04-26T01:03:15.603Z,1.00
2023-04-26T01:04:15.760Z,0.89
2023-04-26T01:05:15.633Z,0.96
2023-04-26T01:06:15.746Z,0.74
2023-04-26T01:07:15.720Z,0.48
2023-04-26T01:08:15.788Z,0.68
2023-04-26T01:09:16.245Z,0.78
2023-04-26T01:10:15.947Z,0.78
2023-04-26T01:11:15.953Z,0.60
2023-04-26T01:12:16.027Z,0.71
2023-04-26T01:13:16.077Z,0.79
2023-04-26T01:14:16.124Z,0.70
2023-04-26T01:15:16.187Z,0.81
2023-04-26T01:16:16.255Z,1.10
2023-04-26T01:17:16.674Z,0.68
2023-04-26T01:18:16.331Z,0.81
2023-04-26T01:19:16.908Z,1.04
2023-04-26T01:20:16.421Z,1.18
2023-04-26T01:21:16.484Z,0.91
2023-04-26T01:22:16.566Z,0.77
2023-04-26T01:23:16.618Z,0.90
2023-04-26T01:24:16.681Z,1.00
2023-04-26T01:25:16.727Z,0.98
2023-04-26T01:26:16.779Z,0.91
2023-04-26T01:27:16.843Z,0.85
2023-04-26T01:28:16.845Z,0.89
2023-04-26T01:29:17.416Z,0.73
2023-04-26T01:30:16.983Z,0.64
2023-04-26T01:31:17.055Z,0.76
2023-04-26T01:32:17.124Z,1.01
2023-04-26T01:33:17.141Z,0.90
2023-04-26T01:34:17.180Z,0.62
2023-04-26T01:35:17.234Z,1.00
2023-04-26T01:36:17.288Z,0.87
2023-04-26T01:37:17.319Z,0.73
2023-04-26T01:38:17.399Z,0.91
2023-04-26T01:39:17.878Z,1.10
2023-04-26T01:40:17.480Z,1.07
2023-04-26T01:41:17.569Z,1.12
2023-04-26T01:42:17.562Z,0.77
2023-04-26T01:43:17.667Z,1.20
2023-04-26T01:44:17.902Z,0.78
2023-04-26T01:45:17.806Z,0.92
2023-04-26T01:46:17.849Z,0.69
2023-04-26T01:47:17.878Z,0.94
2023-04-26T01:48:17.918Z,0.85
2023-04-26T01:49:18.405Z,0.81
2023-04-26T01:50:17.997Z,0.74
2023-04-26T01:51:18.077Z,0.78
2023-04-26T01:52:18.097Z,0.72
2023-04-26T01:53:18.163Z,0.69
2023-04-26T01:54:18.259Z,0.70
2023-04-26T01:55:18.261Z,0.79
2023-04-26T01:56:18.299Z,0.90
2023-04-26T01:57:18.353Z,0.77
2023-04-26T01:58:18.422Z,0.88
2023-04-26T01:59:18.871Z,0.91
2023-04-26T02:00:18.536Z,0.73
2023-04-26T02:01:18.605Z,0.64
2023-04-26T02:02:18.741Z,0.84
2023-04-26T02:03:18.751Z,0.66
2023-04-26T02:04:18.715Z,0.76
2023-04-26T02:05:18.804Z,0.89
2023-04-26T02:06:18.847Z,0.98
2023-04-26T02:07:18.901Z,0.99
2023-04-26T02:08:18.950Z,0.61
2023-04-26T02:09:19.025Z,0.66
2023-04-26T02:10:19.074Z,0.86
2023-04-26T02:11:19.091Z,0.80
2023-04-26T02:12:19.140Z,0.84
2023-04-26T02:13:19.228Z,0.61
2023-04-26T02:14:19.268Z,0.85
2023-04-26T02:15:19.298Z,0.71
2023-04-26T02:16:19.412Z,0.71
2023-04-26T02:17:19.412Z,0.64
2023-04-26T02:18:19.500Z,1.09
2023-04-26T02:19:19.534Z,0.68
2023-04-26T02:20:19.571Z,0.74
2023-04-26T02:21:19.643Z,1.66
2023-04-26T02:22:19.688Z,0.92
2023-04-26T02:23:19.736Z,1.03
2023-04-26T02:24:19.853Z,0.89
2023-04-26T02:25:19.855Z,0.69
2023-04-26T02:26:19.885Z,0.63
2023-04-26T02:27:19.923Z,0.68
2023-04-26T02:28:20.001Z,0.75
2023-04-26T02:29:29.456Z,1.04
2023-04-26T02:30:21.034Z,0.85
2023-04-26T02:31:21.772Z,1.00
2023-04-26T02:32:20.028Z,0.70
2023-04-26T02:33:20.066Z,0.90
2023-04-26T02:34:20.064Z,0.88
2023-04-26T02:35:20.007Z,0.91
2023-04-26T02:36:20.009Z,0.91
2023-04-26T02:37:20.036Z,0.47
2023-04-26T02:38:20.014Z,0.89
2023-04-26T02:39:20.392Z,0.69
2023-04-26T02:40:19.988Z,0.74
2023-04-26T02:41:19.981Z,0.82
2023-04-26T02:42:19.970Z,0.75
2023-04-26T02:43:19.978Z,0.71
2023-04-26T02:44:19.949Z,0.59
2023-04-26T02:45:19.994Z,0.70
2023-04-26T02:46:19.979Z,0.77
2023-04-26T02:47:19.941Z,0.84
2023-04-26T02:48:19.938Z,0.82
2023-04-26T02:49:20.421Z,1.00
2023-04-26T02:50:19.919Z,0.68
2023-04-26T02:51:19.926Z,0.70
2023-04-26T02:52:19.892Z,0.70
2023-04-26T02:53:19.893Z,1.15
2023-04-26T02:54:19.898Z,0.82
2023-04-26T02:55:19.916Z,0.53
2023-04-26T02:56:19.856Z,0.71
2023-04-26T02:57:19.893Z,0.70
2023-04-26T02:58:19.890Z,0.53
2023-04-26T02:59:19.853Z,0.89
2023-04-26T03:00:19.853Z,0.63
2023-04-26T03:01:19.879Z,0.56
2023-04-26T03:02:19.908Z,0.74
2023-04-26T03:03:19.993Z,0.87
2023-04-26T03:04:20.098Z,0.68
2023-04-26T03:05:19.829Z,0.90
2023-04-26T03:06:19.798Z,0.70
2023-04-26T03:07:19.798Z,0.61
2023-04-26T03:08:19.797Z,0.68
2023-04-26T03:09:19.783Z,0.80
2023-04-26T03:10:19.799Z,0.78
2023-04-26T03:11:19.840Z,0.64
2023-04-26T03:12:19.867Z,0.72
2023-04-26T03:13:20.007Z,0.63
2023-04-26T03:14:20.048Z,0.56
2023-04-26T03:15:20.100Z,0.70
2023-04-26T03:16:20.188Z,0.53
2023-04-26T03:17:20.195Z,0.64
2023-04-26T03:18:20.228Z,0.86
2023-04-26T03:19:20.324Z,0.77
2023-04-26T03:20:20.351Z,0.94
2023-04-26T03:21:20.415Z,0.72
2023-04-26T03:22:20.454Z,0.67
2023-04-26T03:23:20.508Z,0.83
2023-04-26T03:24:20.577Z,0.92
2023-04-26T03:25:20.600Z,0.53
2023-04-26T03:26:20.686Z,0.84
2023-04-26T03:27:20.729Z,0.64
2023-04-26T03:28:20.771Z,0.81
2023-04-26T03:29:20.837Z,0.88
2023-04-26T03:30:20.889Z,0.71
2023-04-26T03:31:20.964Z,0.82
2023-04-26T03:32:21.013Z,0.68
2023-04-26T03:33:21.010Z,0.80
2023-04-26T03:34:21.106Z,0.79
2023-04-26T03:35:21.172Z,0.71
2023-04-26T03:36:21.196Z,0.68
2023-04-26T03:37:21.252Z,0.75
2023-04-26T03:38:21.315Z,0.73
2023-04-26T03:39:21.443Z,0.79
2023-04-26T03:40:21.428Z,0.81
2023-04-26T03:41:21.519Z,1.00
2023-04-26T03:42:21.565Z,0.81
2023-04-26T03:43:21.610Z,0.45
2023-04-26T03:44:21.665Z,0.96
2023-04-26T03:45:21.729Z,0.69
2023-04-26T03:46:21.842Z,0.55
2023-04-26T03:47:21.835Z,0.88
2023-04-26T03:48:21.923Z,0.74
2023-04-26T03:49:21.940Z,0.56
2023-04-26T03:50:22.014Z,0.70
2023-04-26T03:51:22.042Z,0.62
2023-04-26T03:52:22.106Z,0.69
2023-04-26T03:53:22.153Z,0.68
2023-04-26T03:54:22.229Z,0.52
2023-04-26T03:55:22.296Z,0.84
2023-04-26T03:56:22.327Z,0.64
2023-04-26T03:57:22.390Z,0.58
2023-04-26T03:58:22.456Z,0.45
2023-04-26T03:59:22.497Z,0.94
2023-04-26T04:00:22.574Z,0.74
2023-04-26T04:01:22.628Z,0.86
2023-04-26T04:02:22.801Z,0.69
2023-04-26T04:03:22.876Z,0.41
2023-04-26T04:04:23.340Z,0.60
2023-04-26T04:05:22.851Z,0.71
2023-04-26T04:06:22.919Z,0.79
2023-04-26T04:07:22.964Z,0.68
2023-04-26T04:08:23.021Z,0.61
2023-04-26T04:09:23.096Z,0.69
2023-04-26T04:10:23.132Z,0.77
2023-04-26T04:11:23.210Z,0.90
2023-04-26T04:12:23.272Z,0.52
2023-04-26T04:13:23.328Z,0.80
2023-04-26T04:14:23.441Z,0.74
2023-04-26T04:15:23.434Z,0.47
2023-04-26T04:16:23.583Z,0.90
2023-04-26T04:17:23.571Z,0.87
2023-04-26T04:18:23.639Z,0.45
2023-04-26T04:19:23.965Z,0.78
2023-04-26T04:20:23.756Z,0.75
2023-04-26T04:21:23.758Z,0.98
2023-04-26T04:22:23.837Z,0.68
2023-04-26T04:23:23.902Z,0.55
2023-04-26T04:24:24.434Z,0.67
2023-04-26T04:25:24.025Z,0.67
2023-04-26T04:26:24.075Z,0.66
2023-04-26T04:27:24.134Z,0.72
2023-04-26T04:28:24.195Z,0.59
2023-04-26T04:29:24.450Z,0.54
2023-04-26T04:30:24.285Z,0.57
2023-04-26T04:31:24.393Z,0.79
2023-04-26T04:32:24.418Z,0.82
2023-04-26T04:33:24.508Z,0.66
2023-04-26T04:34:24.554Z,0.59
2023-04-26T04:35:24.590Z,0.65
2023-04-26T04:36:24.642Z,0.85
2023-04-26T04:37:24.707Z,0.74
2023-04-26T04:38:24.865Z,0.82
2023-04-26T04:39:24.857Z,0.83
2023-04-26T04:40:24.856Z,0.47
2023-04-26T04:41:24.936Z,0.72
2023-04-26T04:42:25.019Z,0.69
2023-04-26T04:43:25.034Z,0.57
2023-04-26T04:44:25.475Z,0.57
2023-04-26T04:45:25.142Z,0.62
2023-04-26T04:46:25.243Z,0.62
2023-04-26T04:47:25.334Z,0.72
2023-04-26T04:48:25.300Z,0.67
2023-04-26T04:49:25.359Z,0.65
2023-04-26T04:50:25.422Z,0.79
2023-04-26T04:51:25.553Z,0.61
2023-04-26T04:52:25.522Z,0.71
2023-04-26T04:53:25.564Z,0.56
2023-04-26T04:54:25.682Z,0.55
2023-04-26T04:55:25.729Z,0.84
2023-04-26T04:56:25.769Z,0.50
2023-04-26T04:57:25.831Z,0.75
2023-04-26T04:58:25.884Z,0.88
2023-04-26T04:59:26.336Z,0.67
2023-04-26T05:00:26.023Z,0.56
2023-04-26T05:01:26.105Z,0.69
2023-04-26T05:02:26.356Z,0.58
2023-04-26T05:03:26.266Z,0.79
2023-04-26T05:04:26.433Z,0.82
2023-04-26T05:05:26.254Z,0.75
2023-04-26T05:06:26.326Z,0.61
2023-04-26T05:07:27.370Z,0.57
2023-04-26T05:08:26.522Z,0.81
2023-04-26T05:09:26.600Z,0.88
2023-04-26T05:10:26.669Z,0.66
2023-04-26T05:11:26.707Z,0.54
2023-04-26T05:12:26.767Z,0.76
2023-04-26T05:13:26.809Z,0.53
2023-04-26T05:14:26.855Z,0.52
2023-04-26T05:15:26.998Z,0.63
2023-04-26T05:16:27.023Z,0.72
2023-04-26T05:17:27.045Z,0.48
2023-04-26T05:18:27.078Z,0.66
2023-04-26T05:19:27.085Z,0.77
2023-04-26T05:20:27.163Z,0.61
2023-04-26T05:21:27.201Z,0.73
2023-04-26T05:22:27.253Z,0.56
2023-04-26T05:23:27.293Z,0.69
2023-04-26T05:24:27.326Z,0.78
2023-04-26T05:25:27.375Z,0.88
2023-04-26T05:26:27.388Z,0.61
2023-04-26T05:27:27.410Z,0.63
2023-04-26T05:28:27.432Z,0.89
2023-04-26T05:29:27.472Z,0.55
2023-04-26T05:30:28.001Z,0.58
2023-04-26T05:31:27.571Z,0.79
2023-04-26T05:32:27.597Z,0.79
2023-04-26T05:33:27.638Z,0.67
2023-04-26T05:34:27.655Z,0.67
2023-04-26T05:35:27.695Z,0.47
2023-04-26T05:36:29.650Z,0.67
2023-04-26T05:37:27.841Z,0.67
2023-04-26T05:38:27.857Z,0.66
2023-04-26T05:39:27.918Z,0.83
2023-04-26T05:40:27.980Z,0.75
2023-04-26T05:41:27.953Z,1.00
2023-04-26T05:42:27.948Z,0.60
2023-04-26T05:43:28.007Z,0.72
2023-04-26T05:44:27.943Z,0.66
2023-04-26T05:45:28.036Z,0.71
2023-04-26T05:46:28.125Z,0.41
2023-04-26T05:47:28.030Z,0.65
2023-04-26T05:48:27.965Z,0.74
2023-04-26T05:49:27.977Z,0.81
2023-04-26T05:50:27.989Z,1.19
2023-04-26T05:51:28.017Z,1.96
2023-04-26T05:52:27.985Z,2.43
2023-04-26T05:53:28.027Z,1.96
2023-04-26T05:54:27.972Z,1.68
2023-04-26T05:55:28.012Z,1.66
2023-04-26T05:56:27.970Z,1.74
2023-04-26T05:57:28.085Z,2.04
2023-04-26T05:58:27.970Z,2.11
2023-04-26T05:59:27.999Z,2.66
2023-04-26T06:00:28.542Z,2.30
2023-04-26T06:01:28.002Z,2.37
2023-04-26T06:02:28.063Z,2.16
2023-04-26T06:03:28.243Z,2.71
2023-04-26T06:04:28.229Z,2.66
2023-04-26T06:05:29.246Z,1.89
2023-04-26T06:06:28.126Z,2.12
2023-04-26T06:07:28.176Z,2.65
2023-04-26T06:08:28.206Z,3.05
2023-04-26T06:09:28.231Z,2.79
2023-04-26T06:10:28.560Z,2.81
2023-04-26T06:11:28.196Z,3.11
2023-04-26T06:12:28.221Z,2.57
2023-04-26T06:13:28.262Z,3.05
2023-04-26T06:14:30.677Z,2.96
2023-04-26T06:15:28.265Z,2.93
2023-04-26T06:16:28.247Z,2.65
2023-04-26T06:17:28.259Z,3.09
2023-04-26T06:18:28.229Z,3.41
2023-04-26T06:19:28.219Z,2.92
2023-04-26T06:20:28.231Z,3.40
2023-04-26T06:21:28.199Z,3.06
2023-04-26T06:22:28.202Z,3.13
2023-04-26T06:23:28.202Z,2.94
2023-04-26T06:24:28.184Z,2.95
2023-04-26T06:25:28.501Z,3.53
2023-04-26T06:26:28.156Z,2.90
2023-04-26T06:27:28.159Z,3.54
2023-04-26T06:28:28.153Z,3.58
2023-04-26T06:29:28.143Z,3.67
2023-04-26T06:30:28.537Z,3.11
2023-04-26T06:31:28.194Z,2.21
2023-04-26T06:32:28.174Z,3.49
2023-04-26T06:33:28.106Z,2.88
2023-04-26T06:34:28.129Z,2.91
2023-04-26T06:35:28.494Z,3.19
2023-04-26T06:36:28.126Z,3.30
2023-04-26T06:37:28.115Z,3.04
2023-04-26T06:38:28.094Z,2.87
2023-04-26T06:39:28.250Z,3.16
2023-04-26T06:40:28.104Z,2.74
2023-04-26T06:41:28.076Z,2.77
2023-04-26T06:42:28.045Z,3.10
2023-04-26T06:43:28.070Z,2.79
2023-04-26T06:44:28.057Z,2.50
2023-04-26T06:45:28.037Z,2.73
2023-04-26T06:46:28.068Z,2.39
2023-04-26T06:47:27.999Z,2.55
2023-04-26T06:48:28.010Z,2.89
2023-04-26T06:49:28.011Z,2.66
2023-04-26T06:50:28.027Z,1.96
2023-04-26T06:51:28.006Z,2.32
2023-04-26T06:52:28.013Z,2.38
2023-04-26T06:53:27.990Z,2.35
2023-04-26T06:54:28.005Z,2.66
2023-04-26T06:55:28.011Z,2.21
2023-04-26T06:56:29.009Z,2.47
2023-04-26T06:57:27.968Z,2.31
2023-04-26T06:58:28.052Z,2.35
2023-04-26T06:59:27.923Z,2.42
2023-04-26T07:00:28.082Z,2.21
2023-04-26T07:01:27.977Z,2.44
2023-04-26T07:02:28.017Z,2.20
2023-04-26T07:03:28.033Z,2.70
2023-04-26T07:04:28.125Z,2.49
2023-04-26T07:05:28.028Z,2.70
2023-04-26T07:06:27.933Z,2.93
2023-04-26T07:07:27.892Z,2.57
2023-04-26T07:08:27.893Z,2.17
2023-04-26T07:09:27.880Z,2.38
2023-04-26T07:10:27.920Z,2.49
2023-04-26T07:11:27.869Z,2.04
2023-04-26T07:12:27.844Z,2.96
2023-04-26T07:13:28.081Z,2.20
2023-04-26T07:14:27.857Z,1.93
2023-04-26T07:15:28.629Z,2.33
2023-04-26T07:16:28.027Z,1.81
2023-04-26T07:17:28.032Z,2.15
2023-04-26T07:18:27.989Z,2.12
2023-04-26T07:19:28.000Z,2.50
2023-04-26T07:20:28.526Z,2.20
2023-04-26T07:21:28.070Z,2.20
2023-04-26T07:22:28.100Z,2.52
2023-04-26T07:23:28.093Z,2.62
2023-04-26T07:24:28.243Z,3.33
2023-04-26T07:25:28.532Z,2.26
2023-04-26T07:26:28.167Z,2.18
2023-04-26T07:27:28.171Z,2.66
2023-04-26T07:28:28.171Z,2.83
2023-04-26T07:29:28.173Z,2.39
2023-04-26T07:30:28.576Z,2.50
2023-04-26T07:31:28.200Z,2.72
2023-04-26T07:32:28.242Z,2.59
2023-04-26T07:33:28.357Z,2.33
2023-04-26T07:34:28.204Z,3.07
2023-04-26T07:35:28.525Z,2.76
2023-04-26T07:36:28.203Z,2.37
2023-04-26T07:37:28.230Z,3.18
2023-04-26T07:38:28.280Z,3.20
2023-04-26T07:39:28.271Z,2.79
2023-04-26T07:40:28.285Z,2.62
2023-04-26T07:41:28.336Z,2.98
2023-04-26T07:42:28.378Z,2.47
2023-04-26T07:43:28.471Z,2.33
2023-04-26T07:44:28.496Z,2.50
2023-04-26T07:45:28.580Z,2.52
2023-04-26T07:46:28.551Z,2.38
2023-04-26T07:47:28.659Z,2.92
2023-04-26T07:48:28.698Z,3.21
2023-04-26T07:49:28.733Z,2.81
2023-04-26T07:50:28.854Z,3.30
2023-04-26T07:51:28.840Z,3.17
2023-04-26T07:52:28.884Z,3.41
2023-04-26T07:53:28.977Z,2.90
2023-04-26T07:54:29.055Z,3.17
2023-04-26T07:55:29.073Z,2.58
2023-04-26T07:56:29.142Z,4.08
2023-04-26T07:57:29.180Z,2.74
2023-04-26T07:58:29.199Z,3.37
2023-04-26T07:59:29.238Z,2.93
2023-04-26T08:00:30.267Z,3.09
2023-04-26T08:01:29.249Z,4.46
2023-04-26T08:02:43.347Z,3.50
2023-04-26T08:03:30.370Z,3.57
2023-04-26T08:04:29.288Z,3.20
2023-04-26T08:05:29.639Z,3.60
2023-04-26T08:06:29.244Z,3.04
2023-04-26T08:07:29.185Z,3.38
2023-04-26T08:08:29.193Z,3.07
2023-04-26T08:09:29.166Z,2.93
2023-04-26T08:10:29.527Z,2.84
2023-04-26T08:11:29.192Z,2.94
2023-04-26T08:12:29.185Z,3.01
2023-04-26T08:13:29.644Z,4.25
2023-04-26T08:14:29.134Z,3.46
2023-04-26T08:15:29.572Z,2.89
2023-04-26T08:16:29.213Z,2.90
2023-04-26T08:17:29.145Z,2.69
2023-04-26T08:18:29.147Z,3.00
2023-04-26T08:19:29.111Z,2.69
2023-04-26T08:20:29.580Z,2.73
2023-04-26T08:21:29.087Z,2.71
2023-04-26T08:22:29.185Z,2.28
2023-04-26T08:23:29.092Z,2.26
2023-04-26T08:24:29.070Z,3.48
2023-04-26T08:25:29.564Z,3.05
2023-04-26T08:26:29.097Z,2.64
2023-04-26T08:27:29.089Z,2.60
2023-04-26T08:28:29.073Z,2.58
2023-04-26T08:29:29.076Z,2.70
2023-04-26T08:30:29.587Z,2.17
2023-04-26T08:31:29.078Z,3.03
2023-04-26T08:32:29.126Z,2.37
2023-04-26T08:33:29.048Z,2.68
2023-04-26T08:34:29.041Z,2.36
2023-04-26T08:35:29.065Z,2.42
2023-04-26T08:36:29.015Z,2.30
2023-04-26T08:37:29.491Z,2.24
2023-04-26T08:38:28.999Z,2.50
2023-04-26T08:39:28.989Z,1.88
2023-04-26T08:40:29.048Z,2.44
2023-04-26T08:41:29.022Z,2.56
2023-04-26T08:42:29.023Z,1.99
2023-04-26T08:43:29.035Z,2.25
2023-04-26T08:44:29.046Z,2.22
2023-04-26T08:45:29.084Z,2.10
2023-04-26T08:46:29.121Z,1.84
2023-04-26T08:47:29.153Z,1.85
2023-04-26T08:48:29.114Z,2.50
2023-04-26T08:49:29.126Z,2.53
2023-04-26T08:50:29.576Z,2.36
2023-04-26T08:51:29.177Z,3.02
2023-04-26T08:52:29.178Z,2.51
2023-04-26T08:53:29.156Z,2.89
2023-04-26T08:54:29.198Z,2.15
2023-04-26T08:55:29.178Z,3.02
2023-04-26T08:56:29.162Z,2.34
2023-04-26T08:57:29.148Z,2.77
2023-04-26T08:58:29.159Z,2.51
2023-04-26T08:59:29.196Z,2.67
2023-04-26T09:00:29.586Z,2.38
2023-04-26T09:01:29.242Z,2.33
2023-04-26T09:02:29.310Z,2.57
2023-04-26T09:03:29.273Z,2.29
2023-04-26T09:04:29.422Z,2.60
2023-04-26T09:05:29.581Z,1.97
2023-04-26T09:06:29.338Z,2.57
2023-04-26T09:07:29.392Z,2.38
2023-04-26T09:08:29.451Z,2.87
2023-04-26T09:09:29.822Z,2.32
2023-04-26T09:10:29.672Z,2.56
2023-04-26T09:11:29.621Z,2.59
2023-04-26T09:12:29.662Z,2.14
2023-04-26T09:13:29.754Z,2.63
2023-04-26T09:14:29.785Z,2.48
2023-04-26T09:15:29.921Z,2.33
2023-04-26T09:16:29.986Z,2.25
2023-04-26T09:17:30.014Z,2.67
2023-04-26T09:18:30.082Z,2.33
2023-04-26T09:19:30.143Z,2.53
2023-04-26T09:20:30.221Z,2.49
2023-04-26T09:21:30.267Z,2.03
2023-04-26T09:22:30.300Z,2.54
2023-04-26T09:23:30.384Z,2.12
2023-04-26T09:24:30.437Z,2.29
2023-04-26T09:25:30.473Z,2.11
2023-04-26T09:26:30.514Z,2.45
2023-04-26T09:27:30.554Z,2.07
2023-04-26T09:28:30.632Z,2.85
2023-04-26T09:29:30.620Z,2.20
2023-04-26T09:30:30.649Z,2.32
2023-04-26T09:31:30.664Z,2.44
2023-04-26T09:32:30.671Z,2.44
2023-04-26T09:33:30.655Z,3.02
2023-04-26T09:34:30.667Z,2.77
2023-04-26T09:35:30.680Z,2.51
2023-04-26T09:36:30.682Z,2.22
2023-04-26T09:37:30.724Z,2.61
2023-04-26T09:38:30.723Z,2.32
2023-04-26T09:39:30.818Z,2.56
2023-04-26T09:40:30.800Z,2.04
2023-04-26T09:41:30.821Z,2.78
2023-04-26T09:42:30.818Z,2.42
2023-04-26T09:43:30.866Z,2.24
2023-04-26T09:44:30.875Z,2.32
2023-04-26T09:45:30.910Z,2.58
2023-04-26T09:46:31.009Z,10.13
2023-04-26T09:47:30.985Z,4.72
2023-04-26T09:48:31.068Z,3.29
2023-04-26T09:49:31.022Z,2.70
2023-04-26T09:50:31.051Z,3.18
2023-04-26T09:51:31.097Z,3.18
2023-04-26T09:52:31.135Z,2.49
2023-04-26T09:53:31.284Z,2.50
2023-04-26T09:54:32.272Z,2.45
2023-04-26T09:55:35.409Z,2.06
2023-04-26T09:56:31.302Z,1.98
2023-04-26T09:57:31.267Z,2.10
2023-04-26T09:58:31.309Z,2.47
2023-04-26T09:59:31.253Z,2.33
2023-04-26T10:00:31.277Z,2.20
2023-04-26T10:01:31.420Z,2.59
2023-04-26T10:02:31.287Z,2.00
2023-04-26T10:03:31.410Z,2.08
2023-04-26T10:04:31.279Z,2.10
2023-04-26T10:05:33.640Z,2.40
2023-04-26T10:06:31.574Z,2.50
2023-04-26T10:07:31.208Z,2.17
2023-04-26T10:08:31.209Z,1.93
2023-04-26T10:09:31.180Z,1.75
2023-04-26T10:10:31.198Z,1.53
2023-04-26T10:11:31.602Z,2.01
2023-04-26T10:12:31.169Z,2.28
2023-04-26T10:13:31.170Z,2.12
2023-04-26T10:14:31.174Z,2.26
2023-04-26T10:15:31.176Z,1.88
2023-04-26T10:16:31.619Z,1.83
2023-04-26T10:17:31.169Z,2.08
2023-04-26T10:18:31.184Z,1.74
2023-04-26T10:19:31.144Z,2.04
2023-04-26T10:20:31.151Z,1.77
2023-04-26T10:21:31.641Z,1.85
2023-04-26T10:22:31.165Z,1.75
2023-04-26T10:23:31.139Z,2.06
2023-04-26T10:24:31.140Z,2.12
2023-04-26T10:25:31.101Z,2.20
2023-04-26T10:26:31.617Z,2.00
2023-04-26T10:27:31.106Z,1.88
2023-04-26T10:28:31.080Z,2.03
2023-04-26T10:29:31.075Z,1.91
2023-04-26T10:30:31.082Z,1.77
2023-04-26T10:31:31.113Z,1.58
2023-04-26T10:32:31.078Z,1.72
2023-04-26T10:33:31.053Z,2.02
2023-04-26T10:34:31.038Z,1.99
2023-04-26T10:35:31.037Z,1.91
2023-04-26T10:36:31.125Z,1.76
2023-04-26T10:37:31.599Z,1.82
2023-04-26T10:38:31.018Z,1.87
2023-04-26T10:39:31.003Z,1.71
2023-04-26T10:40:31.006Z,1.70
2023-04-26T10:41:31.130Z,1.70
2023-04-26T10:42:31.026Z,1.88
2023-04-26T10:43:31.003Z,1.36
2023-04-26T10:44:30.949Z,1.88
2023-04-26T10:45:31.002Z,2.01
2023-04-26T10:46:31.212Z,1.53
2023-04-26T10:47:30.992Z,1.78
2023-04-26T10:48:30.967Z,2.29
2023-04-26T10:49:30.996Z,2.41
2023-04-26T10:50:30.932Z,2.09
2023-04-26T10:51:30.951Z,2.01
2023-04-26T10:52:30.969Z,1.92
2023-04-26T10:53:30.953Z,1.82
2023-04-26T10:54:30.917Z,1.97
2023-04-26T10:55:30.932Z,1.75
2023-04-26T10:56:31.134Z,2.00
2023-04-26T10:57:30.928Z,1.85
2023-04-26T10:58:30.889Z,1.57
2023-04-26T10:59:43.509Z,1.45
2023-04-26T11:00:32.807Z,1.85
2023-04-26T11:01:30.905Z,1.48
2023-04-26T11:02:30.931Z,1.68
2023-04-26T11:03:30.934Z,1.65
2023-04-26T11:04:31.040Z,1.32
2023-04-26T11:05:30.864Z,1.61
2023-04-26T11:06:31.135Z,1.48
2023-04-26T11:07:30.885Z,1.43
2023-04-26T11:08:30.975Z,1.77
2023-04-26T11:09:30.891Z,1.73
2023-04-26T11:10:30.945Z,1.94
2023-04-26T11:11:31.115Z,1.93
2023-04-26T11:12:31.985Z,1.41
2023-04-26T11:13:30.962Z,1.74
2023-04-26T11:14:30.917Z,1.51
2023-04-26T11:15:30.975Z,1.22
2023-04-26T11:16:31.211Z,1.64
2023-04-26T11:17:30.960Z,1.73
2023-04-26T11:18:30.911Z,1.85
2023-04-26T11:19:30.904Z,1.63
2023-04-26T11:20:30.884Z,1.52
2023-04-26T11:21:30.919Z,1.82
2023-04-26T11:22:30.865Z,1.90
2023-04-26T11:23:30.877Z,1.71
2023-04-26T11:24:30.913Z,1.70
2023-04-26T11:25:30.889Z,1.56
2023-04-26T11:26:31.148Z,1.96
2023-04-26T11:27:30.829Z,1.68
2023-04-26T11:28:33.455Z,1.80
2023-04-26T11:29:30.825Z,1.53
2023-04-26T11:30:30.831Z,1.61
2023-04-26T11:31:31.160Z,1.63
2023-04-26T11:32:30.869Z,1.39
2023-04-26T11:33:30.880Z,1.69
2023-04-26T11:34:30.904Z,1.54
2023-04-26T11:35:30.835Z,1.66
2023-04-26T11:36:31.140Z,1.72
2023-04-26T11:37:30.822Z,1.42
2023-04-26T11:38:30.819Z,1.77
2023-04-26T11:39:30.822Z,1.44
2023-04-26T11:40:30.778Z,1.33
2023-04-26T11:41:31.158Z,1.57
2023-04-26T11:42:30.756Z,1.50
2023-04-26T11:43:30.803Z,1.51
2023-04-26T11:44:30.799Z,1.99
2023-04-26T11:45:30.763Z,1.58
2023-04-26T11:46:30.842Z,1.59
2023-04-26T11:47:30.793Z,1.56
2023-04-26T11:48:30.736Z,1.29
2023-04-26T11:49:30.770Z,1.98
2023-04-26T11:50:30.747Z,1.59
2023-04-26T11:51:32.184Z,2.17
2023-04-26T11:52:30.725Z,1.56
2023-04-26T11:53:30.699Z,2.35
2023-04-26T11:54:30.753Z,1.93
2023-04-26T11:55:30.687Z,1.77
2023-04-26T11:56:30.696Z,1.32
2023-04-26T11:57:30.708Z,2.67
2023-04-26T11:58:30.667Z,1.58
2023-04-26T11:59:30.640Z,1.26
2023-04-26T12:00:30.628Z,1.75
2023-04-26T12:01:30.649Z,1.47
2023-04-26T12:02:30.703Z,1.46
2023-04-26T12:03:30.789Z,1.58
2023-04-26T12:04:30.847Z,1.49
2023-04-26T12:05:30.741Z,1.58
2023-04-26T12:06:30.627Z,1.65
2023-04-26T12:07:30.625Z,1.62
2023-04-26T12:08:30.578Z,1.66
2023-04-26T12:09:30.635Z,1.34
2023-04-26T12:10:30.567Z,1.27
2023-04-26T12:11:30.674Z,1.46
2023-04-26T12:12:30.616Z,1.64
2023-04-26T12:13:30.597Z,1.47
2023-04-26T12:14:30.576Z,1.57
2023-04-26T12:15:30.601Z,1.47
2023-04-26T12:16:30.692Z,1.46
2023-04-26T12:17:30.659Z,1.61
2023-04-26T12:18:30.532Z,1.49
2023-04-26T12:19:30.541Z,1.65
2023-04-26T12:20:30.506Z,1.63
2023-04-26T12:21:31.067Z,1.61
2023-04-26T12:22:30.516Z,1.46
2023-04-26T12:23:30.492Z,1.62
2023-04-26T12:24:30.608Z,1.44
2023-04-26T12:25:30.491Z,1.43
2023-04-26T12:26:30.491Z,1.53
2023-04-26T12:27:30.506Z,1.63
2023-04-26T12:28:30.456Z,2.00
2023-04-26T12:29:30.492Z,1.71
2023-04-26T12:30:30.479Z,2.01
2023-04-26T12:31:30.677Z,1.34
2023-04-26T12:32:30.507Z,1.40
2023-04-26T12:33:30.518Z,1.57
2023-04-26T12:34:30.530Z,1.58
2023-04-26T12:35:30.507Z,1.57
2023-04-26T12:36:30.559Z,1.80
2023-04-26T12:37:30.537Z,1.86
2023-04-26T12:38:30.581Z,1.76
2023-04-26T12:39:30.592Z,2.01
2023-04-26T12:40:30.592Z,1.67
2023-04-26T12:41:30.601Z,1.89
2023-04-26T12:42:30.635Z,1.83
2023-04-26T12:43:30.632Z,1.79
2023-04-26T12:44:30.636Z,1.50
2023-04-26T12:45:30.690Z,1.48
2023-04-26T12:46:30.721Z,1.39
2023-04-26T12:47:30.754Z,1.57
2023-04-26T12:48:30.707Z,1.64
2023-04-26T12:49:30.715Z,1.74
2023-04-26T12:50:30.735Z,1.90
2023-04-26T12:51:31.180Z,1.88
2023-04-26T12:52:30.748Z,1.82
2023-04-26T12:53:30.758Z,1.69
2023-04-26T12:54:30.823Z,1.44
2023-04-26T12:55:32.835Z,1.85
2023-04-26T12:56:30.777Z,1.40
2023-04-26T12:57:30.823Z,1.59
2023-04-26T12:58:30.847Z,1.68
2023-04-26T12:59:30.830Z,1.53
2023-04-26T13:00:30.855Z,1.95
2023-04-26T13:01:38.300Z,1.58
2023-04-26T13:02:30.953Z,2.05
2023-04-26T13:03:31.000Z,1.74
2023-04-26T13:04:31.011Z,1.91
2023-04-26T13:05:30.837Z,1.87
2023-04-26T13:06:30.835Z,1.66
2023-04-26T13:07:30.812Z,1.84
2023-04-26T13:08:30.827Z,2.37
2023-04-26T13:09:30.798Z,1.93
2023-04-26T13:10:30.783Z,1.71
2023-04-26T13:11:30.782Z,2.00
2023-04-26T13:12:30.791Z,1.89
2023-04-26T13:13:42.126Z,2.14
2023-04-26T13:14:31.766Z,2.19
2023-04-26T13:15:30.742Z,1.96
2023-04-26T13:16:31.317Z,1.63
2023-04-26T13:17:30.779Z,2.06
2023-04-26T13:18:30.731Z,1.98